Terminal Aerodrome Forecast
Issued by NWS

Home | Current Version | Previous Version | Graphics & Text | Print | Product List | Glossary On
Versions: 1 2 3 4 5 6 7 8 9 10 11 12 13 14 15 16 17 18 19 20
000
FTUS43 KICT 191100
TAFSLN
TAF
KSLN 191125Z 1912/2012 16008KT P6SM BKN150
     FM191600 19015G20KT P6SM BKN130
     FM200000 18006KT P6SM BKN050
     FM201100 01006KT P6SM BKN050=

USA.gov is the U.S. government's official web portal to all federal, state and local government web resources and services.